Time;durP1;ratioP1;P1;durP2;ratioP2;P2;SDS_P1;SDS_P2;PMS_P1;PMS_P2;Temp;Humidity;BMP_temperature;BMP_pressure;BME280_temperature;BME280_humidity;BME280_pressure;Samples;Min_cycle;Max_cycle;Signal;HPM_P1;HPM_P2
2023/09/22 00:00:10;;;;;;;0.00;0.00;;;12.80;99.90;;;;;;5127298;27;20043;-73
2023/09/22 00:02:36;;;;;;;0.10;0.10;;;12.80;99.90;;;;;;5125624;27;20130;-72
2023/09/22 00:05:01;;;;;;;0.00;0.00;;;12.80;99.90;;;;;;5127716;27;20074;-72
2023/09/22 00:07:27;;;;;;;0.00;0.00;;;13.00;99.90;;;;;;5127020;27;20043;-72
2023/09/22 00:09:53;;;;;;;0.00;0.00;;;13.00;99.90;;;;;;5118165;27;20039;-72
2023/09/22 00:12:18;;;;;;;0.00;0.00;;;13.00;99.90;;;;;;5127205;27;20374;-72
2023/09/22 00:14:45;;;;;;;0.10;0.10;;;13.00;99.90;;;;;;5126607;27;20154;-72
2023/09/22 00:17:10;;;;;;;0.00;0.00;;;13.00;99.90;;;;;;5119763;27;20050;-72
2023/09/22 00:19:36;;;;;;;0.00;0.00;;;13.00;99.90;;;;;;5119681;27;20035;-72
2023/09/22 00:22:02;;;;;;;0.00;0.00;;;13.00;99.90;;;;;;5125843;27;20400;-72
2023/09/22 00:24:28;;;;;;;0.30;0.20;;;13.10;99.90;;;;;;5127169;27;20046;-72
2023/09/22 00:26:54;;;;;;;1.85;0.25;;;13.10;99.90;;;;;;5126913;27;20035;-72
2023/09/22 00:29:19;;;;;;;0.68;0.43;;;13.20;99.90;;;;;;5121196;27;20551;-73
2023/09/22 00:31:45;;;;;;;0.13;0.13;;;13.10;99.90;;;;;;5123987;27;20067;-73
2023/09/22 00:34:10;;;;;;;2.17;0.47;;;13.20;99.90;;;;;;5124033;27;20074;-73
2023/09/22 00:36:36;;;;;;;0.80;0.30;;;13.30;99.90;;;;;;5123862;27;20480;-73
2023/09/22 00:39:03;;;;;;;0.20;0.20;;;13.50;99.90;;;;;;5122733;27;20040;-73
2023/09/22 00:41:29;;;;;;;0.43;0.30;;;13.30;99.90;;;;;;5126790;27;20084;-73
2023/09/22 00:43:55;;;;;;;0.00;0.00;;;13.30;99.90;;;;;;5126949;27;20039;-73
2023/09/22 00:46:26;;;;;;;1.23;0.20;;;13.40;99.90;;;;;;5125745;27;20043;-73
2023/09/22 00:48:52;;;;;;;1.98;1.40;;;13.40;99.90;;;;;;5123023;27;20043;-73
2023/09/22 00:51:19;;;;;;;1.10;0.95;;;13.60;99.90;;;;;;5120243;27;20052;-73
2023/09/22 00:53:47;;;;;;;0.50;0.43;;;13.50;99.90;;;;;;5126509;27;20046;-73
2023/09/22 00:56:15;;;;;;;0.68;0.68;;;13.50;99.90;;;;;;5125951;27;20051;-73
2023/09/22 00:58:41;;;;;;;0.15;0.15;;;13.50;99.90;;;;;;5124044;27;20568;-73
2023/09/22 01:01:06;;;;;;;0.55;0.45;;;13.60;99.90;;;;;;5122769;27;20031;-73
2023/09/22 01:03:32;;;;;;;1.00;0.80;;;13.60;99.90;;;;;;5123768;27;20034;-73
2023/09/22 01:05:58;;;;;;;1.05;0.95;;;13.60;99.90;;;;;;5126406;27;20043;-73
2023/09/22 01:08:24;;;;;;;0.68;0.68;;;13.60;99.90;;;;;;5126125;27;20041;-73
2023/09/22 01:10:49;;;;;;;0.65;0.55;;;13.60;99.90;;;;;;5123108;27;20038;-73
2023/09/22 01:13:15;;;;;;;2.10;1.33;;;13.60;99.90;;;;;;5116655;27;20048;-73
2023/09/22 01:15:43;;;;;;;1.27;0.65;;;13.70;99.90;;;;;;5123264;27;20032;-73
2023/09/22 01:18:12;;;;;;;0.25;0.25;;;13.60;99.90;;;;;;5114724;27;20032;-73
2023/09/22 01:20:40;;;;;;;0.68;0.65;;;13.60;99.90;;;;;;5121541;27;20480;-73
2023/09/22 01:23:06;;;;;;;0.57;0.57;;;13.70;99.90;;;;;;5123539;27;20039;-73
2023/09/22 01:25:32;;;;;;;1.17;1.10;;;13.70;99.90;;;;;;5123026;27;20036;-74
2023/09/22 01:27:57;;;;;;;0.55;0.55;;;13.70;99.90;;;;;;5123310;27;20385;-73
2023/09/22 01:30:23;;;;;;;0.47;0.47;;;13.70;99.90;;;;;;5129555;27;20118;-73
2023/09/22 01:32:48;;;;;;;0.55;0.52;;;13.60;99.90;;;;;;5123199;27;20073;-73
2023/09/22 01:35:14;;;;;;;0.68;0.68;;;13.60;99.90;;;;;;5124580;27;20035;-73
2023/09/22 01:37:50;;;;;;;1.38;1.05;;;13.60;99.90;;;;;;5124425;27;20039;-73
2023/09/22 01:40:16;;;;;;;2.70;1.42;;;13.70;99.90;;;;;;5112805;27;20044;-73
2023/09/22 01:42:42;;;;;;;2.80;1.75;;;13.70;99.90;;;;;;5126018;27;20058;-73
2023/09/22 01:45:08;;;;;;;0.60;0.40;;;13.70;99.90;;;;;;5125722;27;20500;-73
2023/09/22 01:47:34;;;;;;;1.95;1.00;;;13.70;99.90;;;;;;5125942;27;20060;-73
2023/09/22 01:50:00;;;;;;;2.58;1.48;;;13.60;99.90;;;;;;5115859;27;20040;-73
2023/09/22 01:52:25;;;;;;;3.65;1.63;;;13.70;99.90;;;;;;5113277;28;20127;-73
2023/09/22 01:54:51;;;;;;;2.10;1.33;;;13.80;99.90;;;;;;5125729;28;20476;-73
2023/09/22 01:57:19;;;;;;;1.67;0.70;;;13.80;99.90;;;;;;5125948;28;20066;-73
2023/09/22 01:59:45;;;;;;;1.85;1.48;;;13.80;99.90;;;;;;5119458;27;20051;-74
2023/09/22 02:02:11;;;;;;;2.60;1.40;;;13.80;99.90;;;;;;5125695;27;20058;-73
2023/09/22 02:04:36;;;;;;;2.38;1.05;;;13.70;99.90;;;;;;5117237;28;20505;-73
2023/09/22 02:07:03;;;;;;;0.68;0.55;;;13.80;99.90;;;;;;5123997;27;20096;-72
2023/09/22 02:09:28;;;;;;;0.75;0.75;;;13.80;99.90;;;;;;5121016;27;20040;-73
2023/09/22 02:11:54;;;;;;;3.35;0.90;;;13.60;99.90;;;;;;5126581;27;20564;-73
2023/09/22 02:14:19;;;;;;;1.05;0.70;;;13.40;99.90;;;;;;5126666;27;20032;-73
2023/09/22 02:16:45;;;;;;;4.57;1.55;;;13.40;99.90;;;;;;5127174;27;20099;-73
2023/09/22 02:19:11;;;;;;;2.08;1.00;;;13.30;99.90;;;;;;5126220;27;20039;-73
2023/09/22 02:21:37;;;;;;;4.35;1.67;;;13.50;99.90;;;;;;5126124;27;20160;-73
2023/09/22 02:24:03;;;;;;;0.85;0.82;;;13.50;99.90;;;;;;5134996;27;20449;-73
2023/09/22 02:26:29;;;;;;;0.88;0.82;;;13.50;99.90;;;;;;5132198;27;20043;-73
2023/09/22 02:28:54;;;;;;;1.30;1.17;;;13.50;99.90;;;;;;5128063;27;20395;-74
2023/09/22 02:31:24;;;;;;;0.55;0.55;;;13.60;99.90;;;;;;5129803;27;20031;-74
2023/09/22 02:33:49;;;;;;;3.20;2.03;;;13.60;99.90;;;;;;5129644;27;20063;-73
2023/09/22 02:36:17;;;;;;;1.23;0.85;;;13.40;99.90;;;;;;5127204;27;20569;-74
2023/09/22 02:38:43;;;;;;;3.70;0.88;;;13.40;99.90;;;;;;5126559;27;20043;-73
2023/09/22 02:41:11;;;;;;;1.35;0.80;;;13.30;99.90;;;;;;5126138;27;20047;-73
2023/09/22 02:43:37;;;;;;;1.42;1.30;;;13.20;99.90;;;;;;5124939;27;20088;-73
2023/09/22 02:46:05;;;;;;;1.13;1.02;;;13.10;99.90;;;;;;5126160;27;20452;-73
2023/09/22 02:48:31;;;;;;;1.73;0.90;;;14.40;99.90;;;;;;5128838;27;20036;-73
2023/09/22 02:50:57;;;;;;;0.95;0.65;;;13.30;99.90;;;;;;5124469;27;20100;-73
2023/09/22 02:53:23;;;;;;;1.55;0.82;;;13.30;99.90;;;;;;5126529;27;20090;-74
2023/09/22 02:55:49;;;;;;;0.75;0.68;;;13.40;99.90;;;;;;5129182;27;20050;-74
2023/09/22 02:58:14;;;;;;;2.92;1.63;;;13.50;99.90;;;;;;5129076;27;20043;-73
2023/09/22 03:00:44;;;;;;;3.38;1.63;;;13.60;99.90;;;;;;5119728;27;20047;-73
2023/09/22 03:03:14;;;;;;;1.60;1.50;;;13.60;99.90;;;;;;5128923;27;20082;-74
2023/09/22 03:05:40;;;;;;;1.75;1.55;;;13.60;99.90;;;;;;5127500;27;20063;-74
2023/09/22 03:08:05;;;;;;;1.27;1.08;;;13.60;99.90;;;;;;5124115;27;20074;-73
2023/09/22 03:10:31;;;;;;;0.68;0.68;;;13.80;99.90;;;;;;5127559;27;20039;-73
2023/09/22 03:12:57;;;;;;;2.03;1.08;;;13.70;99.90;;;;;;5125490;27;20515;-74
2023/09/22 03:15:23;;;;;;;1.00;0.85;;;13.70;99.90;;;;;;5131663;27;20043;-74
2023/09/22 03:17:49;;;;;;;2.92;1.88;;;13.70;99.90;;;;;;5127138;27;20039;-73
2023/09/22 03:20:17;;;;;;;0.85;0.85;;;13.60;99.90;;;;;;5122577;27;20511;-74
2023/09/22 03:22:43;;;;;;;1.00;0.90;;;13.60;99.90;;;;;;5120352;27;20105;-73
2023/09/22 03:25:10;;;;;;;4.07;1.42;;;13.60;99.90;;;;;;5125472;27;20044;-73
2023/09/22 03:27:36;;;;;;;0.77;0.60;;;13.60;99.90;;;;;;5124654;27;20047;-73
2023/09/22 03:30:07;;;;;;;1.30;1.20;;;13.50;99.90;;;;;;5133737;27;20381;-73
2023/09/22 03:32:33;;;;;;;3.58;1.42;;;13.50;99.90;;;;;;5125132;27;20374;-73
2023/09/22 03:34:59;;;;;;;2.20;1.42;;;13.50;99.90;;;;;;5125112;27;20127;-73
2023/09/22 03:37:29;;;;;;;1.10;1.02;;;13.50;99.90;;;;;;5127838;27;20115;-73
2023/09/22 03:39:58;;;;;;;3.95;1.80;;;13.50;99.90;;;;;;5120588;27;20040;-73
2023/09/22 03:42:27;;;;;;;1.23;0.60;;;13.40;99.90;;;;;;5127800;27;20438;-73
2023/09/22 03:44:53;;;;;;;1.58;1.20;;;13.40;99.90;;;;;;5127737;27;20104;-73
2023/09/22 03:47:19;;;;;;;1.25;0.93;;;13.30;99.90;;;;;;5126628;27;20091;-73
2023/09/22 03:49:45;;;;;;;1.65;1.02;;;13.30;99.90;;;;;;5112680;27;20084;-73
2023/09/22 03:52:10;;;;;;;2.30;1.77;;;13.10;99.90;;;;;;5127554;27;20054;-73
2023/09/22 03:54:36;;;;;;;3.08;1.75;;;13.10;99.90;;;;;;5125407;27;20055;-73
2023/09/22 03:57:01;;;;;;;2.10;1.55;;;13.00;99.90;;;;;;5124418;27;20036;-73
2023/09/22 03:59:27;;;;;;;1.58;1.45;;;13.00;99.90;;;;;;5111052;27;20044;-73
2023/09/22 04:01:54;;;;;;;2.58;1.40;;;13.00;99.90;;;;;;5123027;27;20078;-73
2023/09/22 04:04:19;;;;;;;2.65;1.15;;;13.10;99.90;;;;;;5124610;27;20043;-73
2023/09/22 04:06:46;;;;;;;1.23;0.35;;;13.20;99.90;;;;;;5126437;27;20040;-73
2023/09/22 04:09:11;;;;;;;0.70;0.70;;;13.30;99.90;;;;;;5127051;27;20102;-73
2023/09/22 04:11:37;;;;;;;1.15;1.08;;;13.40;99.90;;;;;;5126933;27;20119;-72
2023/09/22 04:14:03;;;;;;;1.65;1.50;;;13.40;99.90;;;;;;5122791;27;20070;-74
2023/09/22 04:16:29;;;;;;;0.80;0.80;;;13.40;99.90;;;;;;5131359;27;20039;-73
2023/09/22 04:18:55;;;;;;;3.85;2.15;;;13.30;99.90;;;;;;5119591;27;20039;-73
2023/09/22 04:21:22;;;;;;;3.63;1.67;;;13.50;99.90;;;;;;5111132;27;20486;-74
2023/09/22 04:23:57;;;;;;;1.38;0.85;;;13.50;99.90;;;;;;5127132;27;20043;-73
2023/09/22 04:26:29;;;;;;;1.58;1.33;;;13.80;99.90;;;;;;5124255;27;20050;-73
2023/09/22 04:28:59;;;;;;;5.03;0.80;;;13.50;99.90;;;;;;5123135;27;20047;-73
2023/09/22 04:31:26;;;;;;;6.55;1.73;;;13.40;99.90;;;;;;5126390;27;20483;-73
2023/09/22 04:33:52;;;;;;;2.28;1.33;;;13.40;99.90;;;;;;5127217;27;20571;-74
2023/09/22 04:36:21;;;;;;;2.47;1.08;;;13.40;99.90;;;;;;5124286;27;20075;-74
2023/09/22 04:38:48;;;;;;;2.30;1.08;;;13.20;99.90;;;;;;5128228;27;20054;-73
2023/09/22 04:41:14;;;;;;;7.72;2.63;;;13.10;99.90;;;;;;5123483;27;20096;-73
2023/09/22 04:43:39;;;;;;;3.72;2.50;;;13.70;99.90;;;;;;5128170;27;20039;-73
2023/09/22 04:46:05;;;;;;;1.75;0.82;;;13.10;99.90;;;;;;5127208;27;20071;-73
2023/09/22 04:48:30;;;;;;;0.93;0.68;;;13.20;99.90;;;;;;5123653;27;20043;-74
2023/09/22 04:50:56;;;;;;;1.63;1.27;;;14.50;99.90;;;;;;5120180;27;20047;-73
2023/09/22 04:53:22;;;;;;;2.38;1.75;;;13.10;99.90;;;;;;5124090;27;20035;-73
2023/09/22 04:55:48;;;;;;;2.22;1.90;;;13.00;99.90;;;;;;5126551;27;20041;-74
2023/09/22 04:58:14;;;;;;;2.35;1.48;;;13.10;99.90;;;;;;5125672;27;20484;-74
2023/09/22 05:00:40;;;;;;;0.93;0.82;;;13.00;99.90;;;;;;5123949;27;20043;-73
2023/09/22 05:03:07;;;;;;;1.52;1.42;;;12.90;99.90;;;;;;5123193;27;20054;-73
2023/09/22 05:05:33;;;;;;;2.70;1.98;;;12.90;99.90;;;;;;5123993;27;20044;-74
2023/09/22 05:07:59;;;;;;;2.97;2.03;;;13.00;99.90;;;;;;5125192;27;20038;-73
2023/09/22 05:10:25;;;;;;;1.80;1.58;;;13.00;99.90;;;;;;5123534;27;20047;-74
2023/09/22 05:12:51;;;;;;;3.00;1.77;;;12.90;99.90;;;;;;5123883;27;20078;-73
2023/09/22 05:15:17;;;;;;;1.00;0.93;;;12.80;99.90;;;;;;5124490;27;20043;-73
2023/09/22 05:17:43;;;;;;;3.05;1.38;;;13.50;99.90;;;;;;5123998;27;20043;-74
2023/09/22 05:20:12;;;;;;;2.38;1.83;;;12.80;99.90;;;;;;5124261;27;20043;-74
2023/09/22 05:22:39;;;;;;;3.80;1.98;;;12.70;99.90;;;;;;5124094;27;20057;-73
2023/09/22 05:25:05;;;;;;;3.42;2.45;;;12.60;99.90;;;;;;5126626;27;20043;-74
2023/09/22 05:27:31;;;;;;;2.70;1.48;;;12.50;99.90;;;;;;5116053;27;20044;-74
2023/09/22 05:29:57;;;;;;;2.13;1.15;;;12.40;99.90;;;;;;5119041;27;20397;-73
2023/09/22 05:32:22;;;;;;;2.10;1.38;;;12.40;99.90;;;;;;5126197;27;20129;-74
2023/09/22 05:34:51;;;;;;;10.70;2.42;;;12.40;99.90;;;;;;5117017;27;20052;-73
2023/09/22 05:37:17;;;;;;;1.05;0.98;;;12.40;99.90;;;;;;5120487;27;20052;-74
2023/09/22 05:39:43;;;;;;;7.13;1.48;;;12.40;99.90;;;;;;5121766;27;20052;-74
2023/09/22 05:42:11;;;;;;;2.10;1.40;;;12.40;99.90;;;;;;5124511;27;20047;-73
2023/09/22 05:44:37;;;;;;;4.70;2.13;;;12.50;99.90;;;;;;5124790;27;20042;-73
2023/09/22 05:47:04;;;;;;;2.63;2.10;;;12.80;99.90;;;;;;5123192;27;20042;-73
2023/09/22 05:49:30;;;;;;;4.63;2.00;;;12.50;99.90;;;;;;5121831;27;20477;-74
2023/09/22 05:51:55;;;;;;;2.08;1.92;;;12.50;99.90;;;;;;5121284;27;20051;-73
2023/09/22 05:54:21;;;;;;;3.38;2.17;;;12.60;99.90;;;;;;5124264;28;20071;-73
2023/09/22 05:56:47;;;;;;;4.60;2.38;;;12.60;99.90;;;;;;5125137;27;20046;-73
2023/09/22 05:59:13;;;;;;;2.72;1.73;;;12.60;99.90;;;;;;5122927;27;20044;-74
2023/09/22 06:01:39;;;;;;;3.35;1.98;;;12.70;99.90;;;;;;5125138;28;20403;-73
2023/09/22 06:04:05;;;;;;;4.75;1.98;;;12.70;99.90;;;;;;5125029;28;20035;-73
2023/09/22 06:06:32;;;;;;;4.07;1.77;;;12.70;99.90;;;;;;5122424;27;20412;-73
2023/09/22 06:08:58;;;;;;;5.10;3.58;;;12.80;99.90;;;;;;5120711;28;20078;-73
2023/09/22 06:11:25;;;;;;;6.50;2.72;;;12.70;99.90;;;;;;5121883;28;20126;-73
2023/09/22 06:13:50;;;;;;;2.08;1.88;;;12.70;99.90;;;;;;5124803;27;20039;-74
2023/09/22 06:16:16;;;;;;;3.33;2.03;;;12.80;99.90;;;;;;5123124;28;20035;-73
2023/09/22 06:18:42;;;;;;;4.47;3.40;;;12.80;99.90;;;;;;5122498;27;20043;-74
2023/09/22 06:21:07;;;;;;;6.22;2.53;;;12.80;99.90;;;;;;5121581;28;20071;-74
2023/09/22 06:23:33;;;;;;;4.57;2.80;;;12.80;99.90;;;;;;5121428;28;20450;-73
2023/09/22 06:26:04;;;;;;;2.47;1.85;;;12.80;99.90;;;;;;5124240;28;20043;-73
2023/09/22 06:28:30;;;;;;;2.40;2.20;;;12.80;99.90;;;;;;5124483;27;20035;-73
2023/09/22 06:31:00;;;;;;;1.58;1.48;;;12.90;99.90;;;;;;5122065;27;20403;-74
2023/09/22 06:33:35;;;;;;;3.05;1.38;;;12.90;99.90;;;;;;5121503;28;20043;-73
2023/09/22 06:36:05;;;;;;;2.13;0.90;;;13.00;99.90;;;;;;5123185;28;20088;-73
2023/09/22 06:38:35;;;;;;;8.55;2.05;;;13.00;99.90;;;;;;5124744;27;20062;-74
2023/09/22 06:41:04;;;;;;;2.55;2.20;;;13.00;99.90;;;;;;5123109;27;20043;-74
2023/09/22 06:43:30;;;;;;;1.33;1.23;;;13.10;99.90;;;;;;5119678;28;20122;-73
2023/09/22 06:45:58;;;;;;;3.55;2.13;;;13.10;99.90;;;;;;5121108;28;20400;-73
2023/09/22 06:48:29;;;;;;;3.10;1.77;;;13.20;99.90;;;;;;5124284;27;20116;-74
2023/09/22 06:50:57;;;;;;;0.57;0.57;;;13.20;99.90;;;;;;5124466;27;20039;-73
2023/09/22 06:53:28;;;;;;;2.15;1.05;;;13.30;99.90;;;;;;5122689;27;20044;-73
2023/09/22 06:56:08;;;;;;;5.45;2.20;;;13.30;99.90;;;;;;5131021;27;20039;-73
2023/09/22 06:58:35;;;;;;;8.48;1.90;;;13.40;99.90;;;;;;5117052;27;20040;-73
2023/09/22 07:01:12;;;;;;;3.75;2.92;;;13.40;99.90;;;;;;5124718;27;20047;-73
2023/09/22 07:03:38;;;;;;;;;;;13.40;99.90;;;;;;5117362;27;20047;-73
2023/09/22 07:06:09;;;;;;;;;;;13.40;99.90;;;;;;5129933;27;19919;-73
2023/09/22 07:08:35;;;;;;;2.65;1.67;;;13.50;99.90;;;;;;5125134;27;20303;-73
2023/09/22 07:11:07;;;;;;;2.50;0.88;;;13.60;99.90;;;;;;5124601;27;20043;-73
2023/09/22 07:13:32;;;;;;;3.10;1.45;;;13.70;99.90;;;;;;5125923;27;20657;-73
2023/09/22 07:15:59;;;;;;;1.10;1.00;;;13.70;99.90;;;;;;5127211;27;20047;-73
2023/09/22 07:18:25;;;;;;;2.65;2.45;;;13.80;99.90;;;;;;5127914;27;20039;-73
2023/09/22 07:20:55;;;;;;;7.63;1.75;;;13.80;99.90;;;;;;5112547;27;20035;-73
2023/09/22 07:23:22;;;;;;;1.25;1.15;;;13.80;99.90;;;;;;5121308;27;20041;-73
2023/09/22 07:26:01;;;;;;;3.60;1.95;;;13.80;99.90;;;;;;5124049;27;20032;-73
2023/09/22 07:28:28;;;;;;;1.70;1.55;;;13.90;1.00;;;;;;5127558;27;20039;-73
2023/09/22 07:30:54;;;;;;;2.90;1.70;;;13.70;1.00;;;;;;5125294;27;20069;-73
2023/09/22 07:33:20;;;;;;;5.10;1.80;;;13.70;1.00;;;;;;5124398;27;20099;-73
2023/09/22 07:35:50;;;;;;;4.78;2.00;;;13.80;99.90;;;;;;5121257;27;20036;-73
2023/09/22 07:38:18;;;;;;;2.80;1.50;;;13.70;99.90;;;;;;5118801;27;20047;-73
2023/09/22 07:40:44;;;;;;;2.58;1.65;;;13.70;99.90;;;;;;5126283;27;20027;-73
2023/09/22 07:43:10;;;;;;;1.70;0.65;;;13.80;99.90;;;;;;5120724;27;20405;-73
2023/09/22 07:45:36;;;;;;;5.07;2.65;;;13.80;1.00;;;;;;5106417;27;20043;-73
2023/09/22 07:48:02;;;;;;;1.85;1.23;;;13.80;1.00;;;;;;5112889;27;20035;-73
2023/09/22 07:50:29;;;;;;;1.42;0.98;;;13.80;99.90;;;;;;5122850;27;20043;-73
2023/09/22 07:52:56;;;;;;;3.70;2.03;;;13.90;99.90;;;;;;5122841;27;20051;-73
2023/09/22 07:55:22;;;;;;;6.55;1.83;;;13.90;99.90;;;;;;5119326;27;20096;-73
2023/09/22 07:57:49;;;;;;;1.48;1.38;;;14.00;99.90;;;;;;5109614;27;20048;-73
2023/09/22 08:00:18;;;;;;;1.95;1.40;;;14.00;99.90;;;;;;5118643;27;20545;-73
2023/09/22 08:02:45;;;;;;;2.88;2.15;;;14.10;99.90;;;;;;5120274;27;20535;-73
2023/09/22 08:05:15;;;;;;;1.67;1.13;;;14.10;1.00;;;;;;5121559;27;20043;-73
2023/09/22 08:07:42;;;;;;;1.75;1.40;;;14.20;1.00;;;;;;5109773;27;20404;-73
2023/09/22 08:10:10;;;;;;;1.23;0.73;;;14.20;1.00;;;;;;5119303;27;20047;-73
2023/09/22 08:12:41;;;;;;;0.43;0.43;;;14.20;99.90;;;;;;5121145;27;20047;-74
2023/09/22 08:15:08;;;;;;;1.23;0.75;;;14.30;1.00;;;;;;5122461;27;20054;-73
2023/09/22 08:17:34;;;;;;;1.08;1.02;;;14.30;99.90;;;;;;5120765;27;20472;-73
2023/09/22 08:19:59;;;;;;;1.75;1.65;;;14.20;99.90;;;;;;5119210;27;20051;-73
2023/09/22 08:22:26;;;;;;;0.80;0.70;;;14.40;99.90;;;;;;5113808;27;20036;-73
2023/09/22 08:24:52;;;;;;;2.35;0.95;;;14.40;99.90;;;;;;5119350;27;20039;-73
2023/09/22 08:27:18;;;;;;;0.90;0.82;;;14.60;99.90;;;;;;5119049;27;20035;-73
2023/09/22 08:29:44;;;;;;;0.95;0.82;;;14.60;99.90;;;;;;5120310;27;20044;-73
2023/09/22 08:32:10;;;;;;;0.73;0.52;;;14.70;68.40;;;;;;5119646;27;20035;-73
2023/09/22 08:34:38;;;;;;;1.65;1.25;;;14.70;99.90;;;;;;5116109;27;20373;-74
2023/09/22 08:37:04;;;;;;;0.60;0.55;;;14.80;99.90;;;;;;5119071;27;20055;-73
2023/09/22 08:39:30;;;;;;;0.57;0.30;;;14.80;98.90;;;;;;5119216;27;20058;-73
2023/09/22 08:41:58;;;;;;;0.38;0.25;;;14.80;99.90;;;;;;5120130;27;20124;-73
2023/09/22 08:44:25;;;;;;;0.88;0.68;;;14.90;1.00;;;;;;5118494;27;20122;-73
2023/09/22 08:46:52;;;;;;;1.00;0.88;;;14.80;1.00;;;;;;5118874;27;20055;-73
2023/09/22 08:49:21;;;;;;;1.30;0.98;;;15.00;99.90;;;;;;5110475;27;20066;-73
2023/09/22 08:51:49;;;;;;;1.63;0.80;;;15.10;1.00;;;;;;5119207;27;20051;-73
2023/09/22 08:54:15;;;;;;;1.08;0.50;;;15.20;99.90;;;;;;5118779;27;20084;-73
2023/09/22 08:56:41;;;;;;;1.13;1.02;;;15.20;93.00;;;;;;5118880;27;20039;-73
2023/09/22 08:59:09;;;;;;;0.38;0.20;;;15.30;99.90;;;;;;5119222;27;20140;-73
2023/09/22 09:01:37;;;;;;;0.68;0.35;;;15.50;1.00;;;;;;5120926;27;20488;-73
2023/09/22 09:04:28;;;;;;;0.10;0.10;;;15.50;99.90;;;;;;5122364;27;20053;-73
2023/09/22 09:06:54;;;;;;;0.08;0.08;;;15.60;1.00;;;;;;5113151;27;20079;-73
2023/09/22 09:09:20;;;;;;;0.85;0.52;;;16.70;99.90;;;;;;5119947;27;20127;-73
2023/09/22 09:12:02;;;;;;;0.00;0.00;;;15.80;99.90;;;;;;5109251;27;20082;-73
2023/09/22 09:14:28;;;;;;;0.10;0.10;;;16.00;99.90;;;;;;5119552;27;20051;-73
2023/09/22 09:16:56;;;;;;;24.88;0.52;;;16.30;99.90;;;;;;5114441;27;20042;-73
2023/09/22 09:19:22;;;;;;;0.57;0.52;;;16.80;38.70;;;;;;5122553;27;20031;-73
2023/09/22 09:22:11;;;;;;;0.20;0.20;;;17.50;1.00;;;;;;5118698;27;20047;-73
2023/09/22 09:24:37;;;;;;;0.95;0.82;;;18.60;1.00;;;;;;5120109;27;20508;-73
2023/09/22 09:27:19;;;;;;;0.10;0.10;;;19.40;99.90;;;;;;5123899;27;20044;-73
2023/09/22 09:29:53;;;;;;;0.32;0.32;;;20.10;99.90;;;;;;5120496;27;20031;-73
2023/09/22 09:32:26;;;;;;;0.50;0.30;;;20.90;99.90;;;;;;5122258;27;20039;-73
2023/09/22 09:34:52;;;;;;;0.45;0.40;;;21.10;99.90;;;;;;5118851;27;20035;-73
2023/09/22 09:37:19;;;;;;;0.57;0.35;;;20.70;99.90;;;;;;5122063;27;20070;-73
2023/09/22 09:39:53;;;;;;;0.00;0.00;;;20.40;57.80;;;;;;5122116;27;20103;-73
2023/09/22 09:42:22;;;;;;;0.05;0.05;;;20.40;54.00;;;;;;5118899;27;20040;-74
2023/09/22 09:44:57;;;;;;;0.38;0.38;;;20.20;31.10;;;;;;5115392;27;20066;-73
2023/09/22 09:47:23;;;;;;;0.38;0.35;;;20.10;21.70;;;;;;5115890;27;20039;-73
2023/09/22 09:49:55;;;;;;;0.00;0.00;;;20.40;34.60;;;;;;5121971;27;20095;-73
2023/09/22 09:52:35;;;;;;;0.00;0.00;;;20.60;91.60;;;;;;5104807;28;20085;-74
2023/09/22 09:55:12;;;;;;;0.00;0.00;;;20.80;94.70;;;;;;5122090;27;20042;-73
2023/09/22 09:57:40;;;;;;;0.00;0.00;;;20.70;17.80;;;;;;5118531;28;20042;-73
2023/09/22 10:00:15;;;;;;;0.70;0.30;;;19.90;1.00;;;;;;5118496;28;20114;-73
2023/09/22 10:02:43;;;;;;;0.00;0.00;;;19.10;1.00;;;;;;5123238;27;20500;-73
2023/09/22 10:05:17;;;;;;;0.17;0.15;;;18.50;1.00;;;;;;5121689;28;20071;-73
2023/09/22 10:07:44;;;;;;;0.00;0.00;;;18.20;1.00;;;;;;5124629;27;20492;-73
2023/09/22 10:10:11;;;;;;;0.17;0.17;;;18.20;1.00;;;;;;5124911;27;20506;-73
2023/09/22 10:12:38;;;;;;;0.20;0.20;;;18.40;1.00;;;;;;5118237;27;20036;-73
2023/09/22 10:15:05;;;;;;;0.28;0.28;;;18.90;1.00;;;;;;5124566;27;20051;-73
2023/09/22 10:17:32;;;;;;;0.00;0.00;;;19.00;1.00;;;;;;5123617;27;20047;-73
2023/09/22 10:20:07;;;;;;;0.08;0.00;;;19.50;1.00;;;;;;5121813;28;20085;-73
2023/09/22 10:22:36;;;;;;;0.22;0.22;;;19.90;1.00;;;;;;5124665;28;20118;-73
2023/09/22 10:25:14;;;;;;;0.75;0.38;;;19.90;1.00;;;;;;5121619;28;20035;-73
2023/09/22 10:27:59;;;;;;;0.30;0.28;;;20.00;1.00;;;;;;5123124;27;20043;-73
2023/09/22 10:30:43;;;;;;;0.10;0.10;;;20.40;1.00;;;;;;5128911;27;20035;-73
2023/09/22 10:33:27;;;;;;;0.00;0.00;;;20.40;1.00;;;;;;5123946;27;20445;-73
2023/09/22 10:35:57;;;;;;;0.00;0.00;;;20.60;1.00;;;;;;5127322;27;20043;-73
2023/09/22 10:38:23;;;;;;;0.00;0.00;;;20.30;1.00;;;;;;5128580;27;20114;-73
2023/09/22 10:41:03;;;;;;;0.00;0.00;;;20.00;1.00;;;;;;5127873;27;20070;-73
2023/09/22 10:43:30;;;;;;;0.10;0.10;;;19.90;1.00;;;;;;5119231;27;20114;-73
2023/09/22 10:45:56;;;;;;;0.30;0.10;;;19.50;99.90;;;;;;5126227;27;20036;-73
2023/09/22 10:48:22;;;;;;;0.00;0.00;;;19.60;1.00;;;;;;5128765;27;20035;-73
2023/09/22 10:50:52;;;;;;;0.00;0.00;;;19.20;99.90;;;;;;5128351;27;20115;-73
2023/09/22 10:53:18;;;;;;;8.40;2.40;;;19.00;99.90;;;;;;5125155;27;20035;-73
2023/09/22 10:55:45;;;;;;;0.00;0.00;;;18.90;99.90;;;;;;5125238;27;20372;-73
2023/09/22 10:58:15;;;;;;;0.15;0.15;;;19.10;99.90;;;;;;5126097;27;20054;-73
2023/09/22 11:00:54;;;;;;;0.05;0.05;;;19.30;99.90;;;;;;5127455;27;20061;-73
2023/09/22 11:03:20;;;;;;;0.05;0.00;;;19.70;99.90;;;;;;5126462;27;20035;-73
2023/09/22 11:06:00;;;;;;;0.10;0.10;;;20.00;99.90;;;;;;5125088;27;20031;-73
2023/09/22 11:08:26;;;;;;;0.60;0.28;;;20.10;99.90;;;;;;5126812;27;20058;-73
2023/09/22 11:10:53;;;;;;;0.60;0.52;;;20.10;99.90;;;;;;5127157;27;20535;-73
2023/09/22 11:13:21;;;;;;;0.00;0.00;;;20.00;99.90;;;;;;5127466;27;20051;-73
2023/09/22 11:15:50;;;;;;;0.00;0.00;;;20.20;99.90;;;;;;5123778;27;20051;-74
2023/09/22 11:18:35;;;;;;;2.47;0.32;;;20.10;99.90;;;;;;5124690;27;20413;-73
2023/09/22 11:21:10;;;;;;;0.15;0.15;;;20.40;99.90;;;;;;5118072;27;20044;-73
2023/09/22 11:23:41;;;;;;;0.15;0.13;;;20.40;99.90;;;;;;5125738;27;20408;-73
2023/09/22 11:26:09;;;;;;;0.00;0.00;;;20.40;99.90;;;;;;5128014;27;20043;-73
2023/09/22 11:28:43;;;;;;;0.00;0.00;;;20.60;99.90;;;;;;5126847;27;20060;-73
2023/09/22 11:31:09;;;;;;;1.10;0.28;;;21.10;99.90;;;;;;5123674;27;20093;-74
2023/09/22 11:33:39;;;;;;;0.00;0.00;;;20.90;99.90;;;;;;5124309;27;20080;-73
2023/09/22 11:36:05;;;;;;;0.00;0.00;;;20.70;99.90;;;;;;5116302;27;20039;-73
2023/09/22 11:38:33;;;;;;;0.17;0.10;;;20.70;99.90;;;;;;5123922;27;20044;-73
2023/09/22 11:41:14;;;;;;;0.40;0.40;;;20.70;99.90;;;;;;5126450;27;20051;-73
2023/09/22 11:43:41;;;;;;;0.00;0.00;;;20.70;99.90;;;;;;5119377;27;20606;-73
2023/09/22 11:46:14;;;;;;;0.10;0.10;;;20.90;99.90;;;;;;5121889;27;20044;-73
2023/09/22 11:48:55;;;;;;;0.00;0.00;;;20.90;99.90;;;;;;5127157;27;20502;-73
2023/09/22 11:51:21;;;;;;;0.00;0.00;;;20.50;99.90;;;;;;5116180;27;20100;-73
2023/09/22 11:53:47;;;;;;;2.17;0.68;;;20.10;99.90;;;;;;5123876;27;20078;-73
2023/09/22 11:56:13;;;;;;;0.17;0.17;;;19.80;99.90;;;;;;5125757;27;20052;-73
2023/09/22 11:58:39;;;;;;;0.43;0.30;;;19.50;99.90;;;;;;5126926;27;20396;-73
2023/09/22 12:01:05;;;;;;;0.00;0.00;;;19.20;99.90;;;;;;5126452;27;20031;-73
2023/09/22 12:03:32;;;;;;;0.00;0.00;;;19.10;99.90;;;;;;5123360;27;20041;-73
2023/09/22 12:05:59;;;;;;;0.00;0.00;;;18.80;99.90;;;;;;5121165;27;20176;-73
2023/09/22 12:08:25;;;;;;;0.00;0.00;;;18.70;99.90;;;;;;5122737;27;20404;-73
2023/09/22 12:10:50;;;;;;;0.00;0.00;;;18.80;99.90;;;;;;5123780;27;20046;-73
2023/09/22 12:13:16;;;;;;;0.00;0.00;;;18.80;99.90;;;;;;5123270;27;20806;-73
2023/09/22 12:15:42;;;;;;;0.30;0.30;;;19.10;99.90;;;;;;5120228;27;20036;-74
2023/09/22 12:18:08;;;;;;;0.35;0.35;;;19.70;99.90;;;;;;5120745;27;20046;-74
2023/09/22 12:20:35;;;;;;;0.10;0.10;;;19.90;99.90;;;;;;5120683;27;20052;-74
2023/09/22 12:23:01;;;;;;;0.22;0.13;;;19.60;99.90;;;;;;5123793;27;20047;-74
2023/09/22 12:25:26;;;;;;;0.13;0.10;;;19.40;99.90;;;;;;5121141;27;20042;-73
2023/09/22 12:27:52;;;;;;;0.00;0.00;;;19.50;99.90;;;;;;5111461;27;20043;-73
2023/09/22 12:30:18;;;;;;;0.25;0.25;;;19.00;99.90;;;;;;5119950;27;20469;-73
2023/09/22 12:32:43;;;;;;;0.10;0.10;;;18.70;99.90;;;;;;5121416;27;20458;-73
2023/09/22 12:35:09;;;;;;;0.00;0.00;;;18.50;99.90;;;;;;5118382;27;20118;-73
2023/09/22 12:37:35;;;;;;;0.00;0.00;;;18.40;99.90;;;;;;5121843;27;20081;-73
2023/09/22 12:40:03;;;;;;;0.15;0.13;;;18.40;99.90;;;;;;5120725;27;20480;-73
2023/09/22 12:42:29;;;;;;;0.55;0.55;;;18.40;99.90;;;;;;5120063;27;20040;-73
2023/09/22 12:44:54;;;;;;;0.00;0.00;;;18.40;99.90;;;;;;5123210;27;20043;-73
2023/09/22 12:47:20;;;;;;;0.25;0.22;;;18.20;99.90;;;;;;5119972;27;20035;-73
2023/09/22 12:49:45;;;;;;;0.13;0.10;;;18.40;99.90;;;;;;5119428;27;20051;-73